sensor_id;sensor_type;location;lat;lon;timestamp;P1;durP1;ratioP1;P2;durP2;ratioP2
28180;SDS011;15464;50.988;10.318;2022-12-16T00:01:24;58.47;;;29.65;;
28180;SDS011;15464;50.988;10.318;2022-12-16T00:03:53;56.47;;;28.50;;
28180;SDS011;15464;50.988;10.318;2022-12-16T00:06:23;52.08;;;26.98;;
28180;SDS011;15464;50.988;10.318;2022-12-16T00:08:51;47.85;;;26.17;;
28180;SDS011;15464;50.988;10.318;2022-12-16T00:11:20;33.60;;;18.60;;
28180;SDS011;15464;50.988;10.318;2022-12-16T00:13:46;47.97;;;26.50;;
28180;SDS011;15464;50.988;10.318;2022-12-16T00:16:14;51.08;;;26.40;;
28180;SDS011;15464;50.988;10.318;2022-12-16T00:18:43;52.85;;;26.65;;
28180;SDS011;15464;50.988;10.318;2022-12-16T00:21:11;45.45;;;24.65;;
28180;SDS011;15464;50.988;10.318;2022-12-16T00:23:38;48.78;;;25.73;;
28180;SDS011;15464;50.988;10.318;2022-12-16T00:26:07;47.33;;;25.35;;
28180;SDS011;15464;50.988;10.318;2022-12-16T00:28:35;49.38;;;26.50;;
28180;SDS011;15464;50.988;10.318;2022-12-16T00:31:02;45.28;;;24.75;;
28180;SDS011;15464;50.988;10.318;2022-12-16T00:33:29;44.30;;;25.60;;
28180;SDS011;15464;50.988;10.318;2022-12-16T00:35:57;46.08;;;24.65;;
28180;SDS011;15464;50.988;10.318;2022-12-16T00:38:24;41.70;;;23.83;;
28180;SDS011;15464;50.988;10.318;2022-12-16T00:40:51;47.90;;;25.95;;
28180;SDS011;15464;50.988;10.318;2022-12-16T00:43:18;46.60;;;26.17;;
28180;SDS011;15464;50.988;10.318;2022-12-16T00:45:45;50.85;;;26.00;;
28180;SDS011;15464;50.988;10.318;2022-12-16T00:48:13;45.75;;;25.05;;
28180;SDS011;15464;50.988;10.318;2022-12-16T00:50:40;56.83;;;26.25;;
28180;SDS011;15464;50.988;10.318;2022-12-16T00:53:08;47.10;;;25.52;;
28180;SDS011;15464;50.988;10.318;2022-12-16T00:55:35;50.42;;;25.67;;
28180;SDS011;15464;50.988;10.318;2022-12-16T00:58:02;49.85;;;24.85;;
28180;SDS011;15464;50.988;10.318;2022-12-16T01:00:28;43.40;;;23.95;;
28180;SDS011;15464;50.988;10.318;2022-12-16T01:02:55;46.53;;;24.20;;
28180;SDS011;15464;50.988;10.318;2022-12-16T01:05:22;46.58;;;23.60;;
28180;SDS011;15464;50.988;10.318;2022-12-16T01:07:53;49.30;;;25.77;;
28180;SDS011;15464;50.988;10.318;2022-12-16T01:10:20;41.35;;;24.23;;
28180;SDS011;15464;50.988;10.318;2022-12-16T01:12:48;47.97;;;24.63;;
28180;SDS011;15464;50.988;10.318;2022-12-16T01:15:15;46.33;;;25.80;;
28180;SDS011;15464;50.988;10.318;2022-12-16T01:17:43;46.80;;;25.85;;
28180;SDS011;15464;50.988;10.318;2022-12-16T01:20:10;50.95;;;25.35;;
28180;SDS011;15464;50.988;10.318;2022-12-16T01:22:38;53.42;;;28.15;;
28180;SDS011;15464;50.988;10.318;2022-12-16T01:25:05;54.20;;;25.48;;
28180;SDS011;15464;50.988;10.318;2022-12-16T01:27:32;47.17;;;25.90;;
28180;SDS011;15464;50.988;10.318;2022-12-16T01:29:58;51.13;;;27.10;;
28180;SDS011;15464;50.988;10.318;2022-12-16T01:32:25;49.33;;;25.73;;
28180;SDS011;15464;50.988;10.318;2022-12-16T01:34:52;49.72;;;27.10;;
28180;SDS011;15464;50.988;10.318;2022-12-16T01:37:21;48.72;;;25.55;;
28180;SDS011;15464;50.988;10.318;2022-12-16T01:39:49;55.83;;;28.95;;
28180;SDS011;15464;50.988;10.318;2022-12-16T01:42:18;51.65;;;29.83;;
28180;SDS011;15464;50.988;10.318;2022-12-16T01:47:14;51.40;;;27.15;;
28180;SDS011;15464;50.988;10.318;2022-12-16T01:49:48;52.10;;;27.80;;
28180;SDS011;15464;50.988;10.318;2022-12-16T01:52:27;47.78;;;25.10;;
28180;SDS011;15464;50.988;10.318;2022-12-16T01:55:01;48.08;;;26.48;;
28180;SDS011;15464;50.988;10.318;2022-12-16T01:57:37;52.33;;;26.45;;
28180;SDS011;15464;50.988;10.318;2022-12-16T02:00:09;51.78;;;26.70;;
28180;SDS011;15464;50.988;10.318;2022-12-16T02:02:38;50.67;;;26.42;;
28180;SDS011;15464;50.988;10.318;2022-12-16T02:05:09;47.17;;;26.85;;
28180;SDS011;15464;50.988;10.318;2022-12-16T02:10:28;46.17;;;23.52;;
28180;SDS011;15464;50.988;10.318;2022-12-16T02:13:51;53.78;;;26.40;;
28180;SDS011;15464;50.988;10.318;2022-12-16T02:16:11;48.30;;;24.77;;
28180;SDS011;15464;50.988;10.318;2022-12-16T02:35:11;47.95;;;25.60;;
28180;SDS011;15464;50.988;10.318;2022-12-16T02:38:10;50.70;;;24.85;;
28180;SDS011;15464;50.988;10.318;2022-12-16T02:43:38;44.85;;;24.80;;
28180;SDS011;15464;50.988;10.318;2022-12-16T02:46:28;50.40;;;25.95;;
28180;SDS011;15464;50.988;10.318;2022-12-16T02:49:05;50.88;;;26.52;;
28180;SDS011;15464;50.988;10.318;2022-12-16T02:51:33;52.13;;;25.92;;
28180;SDS011;15464;50.988;10.318;2022-12-16T02:54:03;44.22;;;24.40;;
28180;SDS011;15464;50.988;10.318;2022-12-16T02:59:27;46.17;;;24.50;;
28180;SDS011;15464;50.988;10.318;2022-12-16T03:02:16;49.60;;;26.83;;
28180;SDS011;15464;50.988;10.318;2022-12-16T03:07:37;53.53;;;26.88;;
28180;SDS011;15464;50.988;10.318;2022-12-16T03:12:35;49.60;;;25.27;;
28180;SDS011;15464;50.988;10.318;2022-12-16T03:15:05;46.85;;;25.75;;
28180;SDS011;15464;50.988;10.318;2022-12-16T03:17:33;47.28;;;24.80;;
28180;SDS011;15464;50.988;10.318;2022-12-16T03:20:06;44.53;;;24.10;;
28180;SDS011;15464;50.988;10.318;2022-12-16T03:22:41;46.23;;;23.77;;
28180;SDS011;15464;50.988;10.318;2022-12-16T03:25:11;42.70;;;23.73;;
28180;SDS011;15464;50.988;10.318;2022-12-16T03:30:19;46.20;;;24.20;;
28180;SDS011;15464;50.988;10.318;2022-12-16T03:32:58;46.15;;;23.90;;
28180;SDS011;15464;50.988;10.318;2022-12-16T03:35:35;46.75;;;23.10;;
28180;SDS011;15464;50.988;10.318;2022-12-16T03:38:05;44.30;;;24.15;;
28180;SDS011;15464;50.988;10.318;2022-12-16T03:40:35;42.30;;;23.27;;
28180;SDS011;15464;50.988;10.318;2022-12-16T03:43:06;45.65;;;24.17;;
28180;SDS011;15464;50.988;10.318;2022-12-16T03:45:38;50.45;;;24.85;;
28180;SDS011;15464;50.988;10.318;2022-12-16T03:48:08;43.20;;;23.98;;
28180;SDS011;15464;50.988;10.318;2022-12-16T03:50:36;46.55;;;23.65;;
28180;SDS011;15464;50.988;10.318;2022-12-16T03:53:05;44.97;;;24.10;;
28180;SDS011;15464;50.988;10.318;2022-12-16T03:55:32;44.78;;;25.45;;
28180;SDS011;15464;50.988;10.318;2022-12-16T03:57:59;49.92;;;26.30;;
28180;SDS011;15464;50.988;10.318;2022-12-16T04:00:25;51.50;;;26.25;;
28180;SDS011;15464;50.988;10.318;2022-12-16T04:02:52;48.03;;;25.00;;
28180;SDS011;15464;50.988;10.318;2022-12-16T04:05:20;47.33;;;24.65;;
28180;SDS011;15464;50.988;10.318;2022-12-16T04:07:46;49.58;;;25.50;;
28180;SDS011;15464;50.988;10.318;2022-12-16T04:10:13;46.95;;;24.73;;
28180;SDS011;15464;50.988;10.318;2022-12-16T04:12:40;45.28;;;23.77;;
28180;SDS011;15464;50.988;10.318;2022-12-16T04:15:26;42.65;;;22.15;;
28180;SDS011;15464;50.988;10.318;2022-12-16T04:18:15;47.05;;;24.88;;
28180;SDS011;15464;50.988;10.318;2022-12-16T04:21:03;42.38;;;22.17;;
28180;SDS011;15464;50.988;10.318;2022-12-16T04:23:49;38.55;;;19.90;;
28180;SDS011;15464;50.988;10.318;2022-12-16T04:26:38;40.95;;;21.75;;
28180;SDS011;15464;50.988;10.318;2022-12-16T04:29:23;45.08;;;22.60;;
28180;SDS011;15464;50.988;10.318;2022-12-16T04:31:50;44.47;;;24.25;;
28180;SDS011;15464;50.988;10.318;2022-12-16T04:34:18;43.95;;;23.52;;
28180;SDS011;15464;50.988;10.318;2022-12-16T04:36:52;48.47;;;25.42;;
28180;SDS011;15464;50.988;10.318;2022-12-16T04:39:39;47.25;;;23.48;;
28180;SDS011;15464;50.988;10.318;2022-12-16T04:42:24;46.92;;;23.10;;
28180;SDS011;15464;50.988;10.318;2022-12-16T04:45:09;48.42;;;23.52;;
28180;SDS011;15464;50.988;10.318;2022-12-16T04:47:54;46.72;;;24.85;;
28180;SDS011;15464;50.988;10.318;2022-12-16T04:50:39;39.85;;;21.67;;
28180;SDS011;15464;50.988;10.318;2022-12-16T04:53:25;51.08;;;24.02;;
28180;SDS011;15464;50.988;10.318;2022-12-16T04:56:10;45.28;;;22.98;;
28180;SDS011;15464;50.988;10.318;2022-12-16T04:58:56;48.10;;;23.95;;
28180;SDS011;15464;50.988;10.318;2022-12-16T05:01:41;44.17;;;21.90;;
28180;SDS011;15464;50.988;10.318;2022-12-16T05:04:26;43.95;;;23.67;;
28180;SDS011;15464;50.988;10.318;2022-12-16T05:07:12;47.55;;;23.60;;
28180;SDS011;15464;50.988;10.318;2022-12-16T05:10:03;40.58;;;21.27;;
28180;SDS011;15464;50.988;10.318;2022-12-16T05:12:52;43.97;;;23.45;;
28180;SDS011;15464;50.988;10.318;2022-12-16T05:15:38;43.47;;;22.20;;
28180;SDS011;15464;50.988;10.318;2022-12-16T05:18:24;39.45;;;21.63;;
28180;SDS011;15464;50.988;10.318;2022-12-16T05:21:09;43.47;;;22.02;;
28180;SDS011;15464;50.988;10.318;2022-12-16T05:23:54;41.50;;;20.85;;
28180;SDS011;15464;50.988;10.318;2022-12-16T05:26:39;36.00;;;18.08;;
28180;SDS011;15464;50.988;10.318;2022-12-16T05:29:24;42.85;;;21.95;;
28180;SDS011;15464;50.988;10.318;2022-12-16T05:32:10;39.63;;;19.95;;
28180;SDS011;15464;50.988;10.318;2022-12-16T05:34:55;39.00;;;21.00;;
28180;SDS011;15464;50.988;10.318;2022-12-16T05:37:40;37.50;;;20.08;;
28180;SDS011;15464;50.988;10.318;2022-12-16T05:40:26;37.55;;;19.65;;
28180;SDS011;15464;50.988;10.318;2022-12-16T05:43:11;35.58;;;19.77;;
28180;SDS011;15464;50.988;10.318;2022-12-16T05:45:57;37.30;;;20.48;;
28180;SDS011;15464;50.988;10.318;2022-12-16T05:48:42;37.05;;;19.83;;
28180;SDS011;15464;50.988;10.318;2022-12-16T05:51:27;32.58;;;18.30;;
28180;SDS011;15464;50.988;10.318;2022-12-16T05:54:12;36.28;;;19.13;;
28180;SDS011;15464;50.988;10.318;2022-12-16T05:56:58;35.22;;;19.40;;
28180;SDS011;15464;50.988;10.318;2022-12-16T05:59:44;39.08;;;20.63;;
28180;SDS011;15464;50.988;10.318;2022-12-16T06:02:49;38.85;;;19.92;;
28180;SDS011;15464;50.988;10.318;2022-12-16T06:05:34;40.70;;;19.95;;
28180;SDS011;15464;50.988;10.318;2022-12-16T06:08:20;35.05;;;19.10;;
28180;SDS011;15464;50.988;10.318;2022-12-16T06:11:05;35.03;;;18.90;;
28180;SDS011;15464;50.988;10.318;2022-12-16T06:13:50;34.65;;;20.10;;
28180;SDS011;15464;50.988;10.318;2022-12-16T06:16:35;35.10;;;20.20;;
28180;SDS011;15464;50.988;10.318;2022-12-16T06:19:21;37.08;;;20.13;;
28180;SDS011;15464;50.988;10.318;2022-12-16T06:22:06;43.38;;;23.02;;
28180;SDS011;15464;50.988;10.318;2022-12-16T06:24:52;35.67;;;21.55;;
28180;SDS011;15464;50.988;10.318;2022-12-16T06:27:37;38.50;;;22.50;;
28180;SDS011;15464;50.988;10.318;2022-12-16T06:30:22;37.60;;;20.88;;
28180;SDS011;15464;50.988;10.318;2022-12-16T06:33:07;39.97;;;20.27;;
28180;SDS011;15464;50.988;10.318;2022-12-16T06:35:53;40.35;;;21.75;;
28180;SDS011;15464;50.988;10.318;2022-12-16T06:38:38;37.30;;;22.02;;
28180;SDS011;15464;50.988;10.318;2022-12-16T06:41:23;36.75;;;20.63;;
28180;SDS011;15464;50.988;10.318;2022-12-16T06:44:09;41.03;;;21.55;;
28180;SDS011;15464;50.988;10.318;2022-12-16T06:46:54;37.17;;;21.00;;
28180;SDS011;15464;50.988;10.318;2022-12-16T06:49:40;47.78;;;22.38;;
28180;SDS011;15464;50.988;10.318;2022-12-16T06:52:24;36.05;;;21.35;;
28180;SDS011;15464;50.988;10.318;2022-12-16T06:55:10;34.03;;;19.92;;
28180;SDS011;15464;50.988;10.318;2022-12-16T06:57:56;33.17;;;19.25;;
28180;SDS011;15464;50.988;10.318;2022-12-16T07:00:45;34.08;;;19.02;;
28180;SDS011;15464;50.988;10.318;2022-12-16T07:03:30;34.47;;;19.25;;
28180;SDS011;15464;50.988;10.318;2022-12-16T07:06:15;31.70;;;19.17;;
28180;SDS011;15464;50.988;10.318;2022-12-16T07:09:01;39.35;;;21.50;;
28180;SDS011;15464;50.988;10.318;2022-12-16T07:11:46;34.92;;;19.58;;
28180;SDS011;15464;50.988;10.318;2022-12-16T07:14:31;33.95;;;20.42;;
28180;SDS011;15464;50.988;10.318;2022-12-16T07:17:16;35.63;;;20.45;;
28180;SDS011;15464;50.988;10.318;2022-12-16T07:20:01;36.70;;;20.63;;
28180;SDS011;15464;50.988;10.318;2022-12-16T07:22:47;34.70;;;21.50;;
28180;SDS011;15464;50.988;10.318;2022-12-16T07:25:44;39.97;;;22.50;;
28180;SDS011;15464;50.988;10.318;2022-12-16T07:28:29;38.28;;;22.25;;
28180;SDS011;15464;50.988;10.318;2022-12-16T07:31:14;37.53;;;21.30;;
28180;SDS011;15464;50.988;10.318;2022-12-16T07:34:00;35.58;;;21.23;;
28180;SDS011;15464;50.988;10.318;2022-12-16T07:36:45;41.58;;;22.38;;
28180;SDS011;15464;50.988;10.318;2022-12-16T07:39:30;42.30;;;24.77;;
28180;SDS011;15464;50.988;10.318;2022-12-16T07:42:20;50.13;;;22.75;;
28180;SDS011;15464;50.988;10.318;2022-12-16T07:45:05;44.80;;;23.30;;
28180;SDS011;15464;50.988;10.318;2022-12-16T07:47:51;37.65;;;21.35;;
28180;SDS011;15464;50.988;10.318;2022-12-16T07:50:36;39.42;;;21.73;;
28180;SDS011;15464;50.988;10.318;2022-12-16T07:53:22;35.08;;;21.92;;
28180;SDS011;15464;50.988;10.318;2022-12-16T07:56:08;38.10;;;22.17;;
28180;SDS011;15464;50.988;10.318;2022-12-16T07:58:54;44.65;;;21.80;;
28180;SDS011;15464;50.988;10.318;2022-12-16T08:01:39;39.00;;;23.52;;
28180;SDS011;15464;50.988;10.318;2022-12-16T08:04:25;39.78;;;21.63;;
28180;SDS011;15464;50.988;10.318;2022-12-16T08:07:11;42.65;;;22.52;;
28180;SDS011;15464;50.988;10.318;2022-12-16T08:09:56;43.75;;;23.83;;
28180;SDS011;15464;50.988;10.318;2022-12-16T08:12:41;41.67;;;24.33;;
28180;SDS011;15464;50.988;10.318;2022-12-16T08:15:27;46.15;;;24.67;;
28180;SDS011;15464;50.988;10.318;2022-12-16T08:18:23;41.30;;;24.23;;
28180;SDS011;15464;50.988;10.318;2022-12-16T08:21:08;42.15;;;25.48;;
28180;SDS011;15464;50.988;10.318;2022-12-16T08:23:53;44.42;;;24.27;;
28180;SDS011;15464;50.988;10.318;2022-12-16T08:26:39;42.85;;;26.85;;
28180;SDS011;15464;50.988;10.318;2022-12-16T08:29:24;42.60;;;26.02;;
28180;SDS011;15464;50.988;10.318;2022-12-16T08:32:11;47.58;;;27.10;;
28180;SDS011;15464;50.988;10.318;2022-12-16T08:34:57;43.05;;;26.63;;
28180;SDS011;15464;50.988;10.318;2022-12-16T08:37:42;40.90;;;24.05;;
28180;SDS011;15464;50.988;10.318;2022-12-16T08:40:27;43.80;;;26.33;;
28180;SDS011;15464;50.988;10.318;2022-12-16T08:43:13;46.28;;;27.50;;
28180;SDS011;15464;50.988;10.318;2022-12-16T08:45:58;48.75;;;28.35;;
28180;SDS011;15464;50.988;10.318;2022-12-16T08:48:44;51.28;;;28.70;;
28180;SDS011;15464;50.988;10.318;2022-12-16T08:51:30;44.13;;;25.80;;
28180;SDS011;15464;50.988;10.318;2022-12-16T08:54:16;41.60;;;25.75;;
28180;SDS011;15464;50.988;10.318;2022-12-16T08:57:01;37.90;;;23.80;;
28180;SDS011;15464;50.988;10.318;2022-12-16T08:59:46;41.17;;;24.48;;
28180;SDS011;15464;50.988;10.318;2022-12-16T09:02:32;40.63;;;25.08;;
28180;SDS011;15464;50.988;10.318;2022-12-16T09:05:18;41.33;;;25.90;;
28180;SDS011;15464;50.988;10.318;2022-12-16T09:08:03;43.42;;;24.88;;
28180;SDS011;15464;50.988;10.318;2022-12-16T09:10:49;43.65;;;26.20;;
28180;SDS011;15464;50.988;10.318;2022-12-16T09:13:34;40.17;;;24.73;;
28180;SDS011;15464;50.988;10.318;2022-12-16T09:16:19;40.75;;;25.30;;
28180;SDS011;15464;50.988;10.318;2022-12-16T09:19:05;46.78;;;26.25;;
28180;SDS011;15464;50.988;10.318;2022-12-16T09:21:50;39.20;;;24.65;;
28180;SDS011;15464;50.988;10.318;2022-12-16T09:24:36;40.85;;;25.27;;
28180;SDS011;15464;50.988;10.318;2022-12-16T09:27:21;42.70;;;27.33;;
28180;SDS011;15464;50.988;10.318;2022-12-16T09:30:06;37.03;;;25.00;;
28180;SDS011;15464;50.988;10.318;2022-12-16T09:32:52;37.63;;;24.67;;
28180;SDS011;15464;50.988;10.318;2022-12-16T09:35:38;39.05;;;25.25;;
28180;SDS011;15464;50.988;10.318;2022-12-16T09:38:23;41.70;;;26.83;;
28180;SDS011;15464;50.988;10.318;2022-12-16T09:41:17;40.65;;;24.77;;
28180;SDS011;15464;50.988;10.318;2022-12-16T09:50:29;34.47;;;23.13;;
28180;SDS011;15464;50.988;10.318;2022-12-16T09:53:18;42.25;;;24.88;;
28180;SDS011;15464;50.988;10.318;2022-12-16T09:56:06;43.05;;;25.55;;
28180;SDS011;15464;50.988;10.318;2022-12-16T09:59:00;42.33;;;23.98;;
28180;SDS011;15464;50.988;10.318;2022-12-16T10:01:54;34.42;;;23.00;;
28180;SDS011;15464;50.988;10.318;2022-12-16T10:04:40;38.60;;;24.20;;
28180;SDS011;15464;50.988;10.318;2022-12-16T10:07:26;36.80;;;22.48;;
28180;SDS011;15464;50.988;10.318;2022-12-16T10:19:49;31.38;;;17.75;;
28180;SDS011;15464;50.988;10.318;2022-12-16T10:23:17;20.83;;;13.02;;
28180;SDS011;15464;50.988;10.318;2022-12-16T10:26:15;18.40;;;11.85;;
28180;SDS011;15464;50.988;10.318;2022-12-16T10:29:20;32.22;;;20.42;;
28180;SDS011;15464;50.988;10.318;2022-12-16T10:32:21;22.58;;;14.65;;
28180;SDS011;15464;50.988;10.318;2022-12-16T10:35:22;27.02;;;16.65;;
28180;SDS011;15464;50.988;10.318;2022-12-16T10:38:17;28.88;;;18.80;;
28180;SDS011;15464;50.988;10.318;2022-12-16T10:41:04;26.92;;;16.55;;
28180;SDS011;15464;50.988;10.318;2022-12-16T10:43:51;30.73;;;17.77;;
28180;SDS011;15464;50.988;10.318;2022-12-16T10:46:39;33.63;;;20.05;;
28180;SDS011;15464;50.988;10.318;2022-12-16T10:49:24;30.00;;;18.52;;
28180;SDS011;15464;50.988;10.318;2022-12-16T10:52:13;31.00;;;19.08;;
28180;SDS011;15464;50.988;10.318;2022-12-16T10:55:16;27.45;;;17.05;;
28180;SDS011;15464;50.988;10.318;2022-12-16T11:01:25;34.88;;;19.08;;
28180;SDS011;15464;50.988;10.318;2022-12-16T11:04:32;26.98;;;15.95;;
28180;SDS011;15464;50.988;10.318;2022-12-16T11:13:22;29.97;;;20.17;;
28180;SDS011;15464;50.988;10.318;2022-12-16T11:16:11;30.42;;;18.70;;
28180;SDS011;15464;50.988;10.318;2022-12-16T11:19:01;24.13;;;14.57;;
28180;SDS011;15464;50.988;10.318;2022-12-16T11:21:47;24.77;;;16.30;;
28180;SDS011;15464;50.988;10.318;2022-12-16T11:24:34;27.33;;;16.73;;
28180;SDS011;15464;50.988;10.318;2022-12-16T11:33:01;24.58;;;15.70;;
28180;SDS011;15464;50.988;10.318;2022-12-16T11:35:56;25.38;;;14.77;;
28180;SDS011;15464;50.988;10.318;2022-12-16T11:38:49;24.27;;;15.75;;
28180;SDS011;15464;50.988;10.318;2022-12-16T11:41:39;21.40;;;13.93;;
28180;SDS011;15464;50.988;10.318;2022-12-16T11:44:41;24.17;;;15.07;;
28180;SDS011;15464;50.988;10.318;2022-12-16T11:47:46;25.20;;;15.80;;
28180;SDS011;15464;50.988;10.318;2022-12-16T11:50:33;24.13;;;16.05;;
28180;SDS011;15464;50.988;10.318;2022-12-16T11:56:18;13.38;;;8.70;;
28180;SDS011;15464;50.988;10.318;2022-12-16T11:59:26;12.75;;;8.10;;
28180;SDS011;15464;50.988;10.318;2022-12-16T12:05:27;11.88;;;8.98;;
28180;SDS011;15464;50.988;10.318;2022-12-16T12:08:24;10.38;;;8.05;;
28180;SDS011;15464;50.988;10.318;2022-12-16T12:11:34;12.70;;;8.35;;
28180;SDS011;15464;50.988;10.318;2022-12-16T12:14:34;10.95;;;7.05;;
28180;SDS011;15464;50.988;10.318;2022-12-16T12:17:43;11.80;;;7.60;;
28180;SDS011;15464;50.988;10.318;2022-12-16T12:26:43;11.63;;;7.40;;
28180;SDS011;15464;50.988;10.318;2022-12-16T12:30:03;8.80;;;6.57;;
28180;SDS011;15464;50.988;10.318;2022-12-16T12:39:27;10.07;;;6.50;;
28180;SDS011;15464;50.988;10.318;2022-12-16T12:42:44;10.07;;;6.25;;
28180;SDS011;15464;50.988;10.318;2022-12-16T12:48:35;10.95;;;7.00;;
28180;SDS011;15464;50.988;10.318;2022-12-16T12:55:16;8.20;;;6.32;;
28180;SDS011;15464;50.988;10.318;2022-12-16T12:58:27;10.60;;;6.57;;
28180;SDS011;15464;50.988;10.318;2022-12-16T13:01:14;10.82;;;6.88;;
28180;SDS011;15464;50.988;10.318;2022-12-16T13:04:06;7.15;;;5.75;;
28180;SDS011;15464;50.988;10.318;2022-12-16T13:07:00;9.25;;;7.15;;
28180;SDS011;15464;50.988;10.318;2022-12-16T13:13:20;9.63;;;6.82;;
28180;SDS011;15464;50.988;10.318;2022-12-16T13:16:01;15.15;;;11.93;;
28180;SDS011;15464;50.988;10.318;2022-12-16T13:18:49;11.05;;;8.15;;
28180;SDS011;15464;50.988;10.318;2022-12-16T13:28:28;15.20;;;10.27;;
28180;SDS011;15464;50.988;10.318;2022-12-16T13:31:16;15.73;;;10.45;;
28180;SDS011;15464;50.988;10.318;2022-12-16T13:34:19;15.68;;;11.30;;
28180;SDS011;15464;50.988;10.318;2022-12-16T13:37:17;16.60;;;11.95;;
28180;SDS011;15464;50.988;10.318;2022-12-16T13:43:03;16.27;;;11.55;;
28180;SDS011;15464;50.988;10.318;2022-12-16T13:48:43;16.08;;;12.30;;
28180;SDS011;15464;50.988;10.318;2022-12-16T13:54:40;22.65;;;10.25;;
28180;SDS011;15464;50.988;10.318;2022-12-16T13:57:30;30.52;;;11.05;;
28180;SDS011;15464;50.988;10.318;2022-12-16T14:00:25;20.40;;;10.13;;
28180;SDS011;15464;50.988;10.318;2022-12-16T14:03:26;19.08;;;13.45;;
28180;SDS011;15464;50.988;10.318;2022-12-16T14:06:24;14.65;;;10.88;;
28180;SDS011;15464;50.988;10.318;2022-12-16T14:12:38;16.52;;;10.48;;
28180;SDS011;15464;50.988;10.318;2022-12-16T14:25:14;19.10;;;12.43;;
28180;SDS011;15464;50.988;10.318;2022-12-16T14:37:32;16.15;;;10.93;;
28180;SDS011;15464;50.988;10.318;2022-12-16T14:40:23;15.25;;;10.93;;
28180;SDS011;15464;50.988;10.318;2022-12-16T14:43:13;17.42;;;12.77;;
28180;SDS011;15464;50.988;10.318;2022-12-16T14:46:00;16.25;;;11.10;;
28180;SDS011;15464;50.988;10.318;2022-12-16T14:48:46;17.35;;;11.93;;
28180;SDS011;15464;50.988;10.318;2022-12-16T14:51:33;19.02;;;11.75;;
28180;SDS011;15464;50.988;10.318;2022-12-16T14:57:09;17.67;;;11.45;;
28180;SDS011;15464;50.988;10.318;2022-12-16T15:02:56;15.93;;;9.95;;
28180;SDS011;15464;50.988;10.318;2022-12-16T15:05:43;19.42;;;12.70;;
28180;SDS011;15464;50.988;10.318;2022-12-16T15:08:30;16.67;;;13.40;;
28180;SDS011;15464;50.988;10.318;2022-12-16T15:14:05;19.60;;;12.68;;
28180;SDS011;15464;50.988;10.318;2022-12-16T15:16:54;19.23;;;13.65;;
28180;SDS011;15464;50.988;10.318;2022-12-16T15:19:47;23.08;;;15.15;;
28180;SDS011;15464;50.988;10.318;2022-12-16T15:22:35;19.85;;;13.77;;
28180;SDS011;15464;50.988;10.318;2022-12-16T15:25:24;23.35;;;15.50;;
28180;SDS011;15464;50.988;10.318;2022-12-16T15:31:41;23.33;;;14.80;;
28180;SDS011;15464;50.988;10.318;2022-12-16T15:34:36;23.92;;;16.48;;
28180;SDS011;15464;50.988;10.318;2022-12-16T15:37:37;20.23;;;14.07;;
28180;SDS011;15464;50.988;10.318;2022-12-16T15:43:24;25.83;;;16.38;;
28180;SDS011;15464;50.988;10.318;2022-12-16T15:46:19;28.65;;;19.02;;
28180;SDS011;15464;50.988;10.318;2022-12-16T15:49:21;28.98;;;17.48;;
28180;SDS011;15464;50.988;10.318;2022-12-16T15:55:35;30.63;;;18.95;;
28180;SDS011;15464;50.988;10.318;2022-12-16T15:58:34;26.33;;;17.27;;
28180;SDS011;15464;50.988;10.318;2022-12-16T16:01:21;26.35;;;17.17;;
28180;SDS011;15464;50.988;10.318;2022-12-16T16:04:19;26.27;;;18.30;;
28180;SDS011;15464;50.988;10.318;2022-12-16T16:07:13;27.48;;;17.83;;
28180;SDS011;15464;50.988;10.318;2022-12-16T16:13:05;28.02;;;17.98;;
28180;SDS011;15464;50.988;10.318;2022-12-16T16:15:50;26.15;;;16.95;;
28180;SDS011;15464;50.988;10.318;2022-12-16T16:18:36;24.65;;;17.20;;
28180;SDS011;15464;50.988;10.318;2022-12-16T16:21:22;28.67;;;18.33;;
28180;SDS011;15464;50.988;10.318;2022-12-16T16:24:07;29.75;;;19.25;;
28180;SDS011;15464;50.988;10.318;2022-12-16T16:26:53;35.83;;;22.45;;
28180;SDS011;15464;50.988;10.318;2022-12-16T16:29:39;35.05;;;22.38;;
28180;SDS011;15464;50.988;10.318;2022-12-16T16:32:24;36.88;;;23.40;;
28180;SDS011;15464;50.988;10.318;2022-12-16T16:35:12;36.05;;;22.95;;
28180;SDS011;15464;50.988;10.318;2022-12-16T16:38:14;37.03;;;23.60;;
28180;SDS011;15464;50.988;10.318;2022-12-16T16:40:59;45.85;;;26.25;;
28180;SDS011;15464;50.988;10.318;2022-12-16T16:43:45;41.90;;;24.08;;
28180;SDS011;15464;50.988;10.318;2022-12-16T16:46:36;36.30;;;23.42;;
28180;SDS011;15464;50.988;10.318;2022-12-16T16:49:24;35.20;;;22.42;;
28180;SDS011;15464;50.988;10.318;2022-12-16T16:52:14;37.00;;;24.13;;
28180;SDS011;15464;50.988;10.318;2022-12-16T16:55:01;33.20;;;22.17;;
28180;SDS011;15464;50.988;10.318;2022-12-16T16:57:46;36.25;;;24.17;;
28180;SDS011;15464;50.988;10.318;2022-12-16T17:00:33;34.30;;;22.75;;
28180;SDS011;15464;50.988;10.318;2022-12-16T17:03:19;29.15;;;19.38;;
28180;SDS011;15464;50.988;10.318;2022-12-16T17:06:05;37.60;;;21.08;;
28180;SDS011;15464;50.988;10.318;2022-12-16T17:08:51;31.48;;;20.05;;
28180;SDS011;15464;50.988;10.318;2022-12-16T17:11:36;33.88;;;21.17;;
28180;SDS011;15464;50.988;10.318;2022-12-16T17:14:22;29.13;;;20.10;;
28180;SDS011;15464;50.988;10.318;2022-12-16T17:17:08;32.42;;;20.13;;
28180;SDS011;15464;50.988;10.318;2022-12-16T17:19:53;31.88;;;21.58;;
28180;SDS011;15464;50.988;10.318;2022-12-16T17:22:39;35.83;;;20.38;;
28180;SDS011;15464;50.988;10.318;2022-12-16T17:25:25;37.42;;;21.60;;
28180;SDS011;15464;50.988;10.318;2022-12-16T17:28:10;31.45;;;21.55;;
28180;SDS011;15464;50.988;10.318;2022-12-16T17:30:56;37.17;;;22.33;;
28180;SDS011;15464;50.988;10.318;2022-12-16T17:33:42;44.58;;;26.33;;
28180;SDS011;15464;50.988;10.318;2022-12-16T17:36:27;41.55;;;26.90;;
28180;SDS011;15464;50.988;10.318;2022-12-16T17:39:13;37.65;;;24.95;;
28180;SDS011;15464;50.988;10.318;2022-12-16T17:41:58;42.47;;;27.25;;
28180;SDS011;15464;50.988;10.318;2022-12-16T17:44:44;40.33;;;24.65;;
28180;SDS011;15464;50.988;10.318;2022-12-16T17:47:29;40.17;;;26.05;;
28180;SDS011;15464;50.988;10.318;2022-12-16T17:50:15;39.08;;;24.92;;
28180;SDS011;15464;50.988;10.318;2022-12-16T17:53:00;39.25;;;26.02;;
28180;SDS011;15464;50.988;10.318;2022-12-16T17:55:45;36.30;;;24.75;;
28180;SDS011;15464;50.988;10.318;2022-12-16T17:58:31;41.00;;;26.88;;
28180;SDS011;15464;50.988;10.318;2022-12-16T18:01:21;36.22;;;25.08;;
28180;SDS011;15464;50.988;10.318;2022-12-16T18:04:07;37.55;;;23.83;;
28180;SDS011;15464;50.988;10.318;2022-12-16T18:06:53;38.45;;;25.30;;
28180;SDS011;15464;50.988;10.318;2022-12-16T18:09:38;36.88;;;24.38;;
28180;SDS011;15464;50.988;10.318;2022-12-16T18:12:23;38.40;;;24.98;;
28180;SDS011;15464;50.988;10.318;2022-12-16T18:15:09;45.55;;;28.80;;
28180;SDS011;15464;50.988;10.318;2022-12-16T18:17:54;46.88;;;28.65;;
28180;SDS011;15464;50.988;10.318;2022-12-16T18:20:39;49.17;;;30.50;;